Date,TemperatureHighF,TemperatureAvgF,TemperatureLowF,DewpointHighF,DewpointAvgF,DewpointLowF,HumidityHigh,HumidityAvg,HumidityLow,PressureMaxIn,PressureMinIn,WindSpeedMaxMPH,WindSpeedAvgMPH,GustSpeedMaxMPH,PrecipitationSumIn
2013-1-1,33,31,25,30,27,19,91,85,77,30.11,29.99,2,0,4,0.00
2013-1-2,30,23,19,19,16,13,88,73,60,30.29,30.09,5,1,11,0.00
2013-1-3,36,24,12,24,17,8,87,74,59,30.29,30.17,6,2,10,0.06
2013-1-4,35,31,29,24,22,20,76,70,61,30.29,30.19,6,2,13,0.03
2013-1-5,38,31,27,27,23,19,82,72,62,30.43,30.18,4,1,9,0.16
2013-1-6,40,35,31,32,29,26,85,78,67,30.23,30.02,3,1,6,0.12
2013-1-7,38,32,23,29,26,20,92,78,65,30.49,30.23,4,1,6,0.02
2013-1-8,48,31,19,35,24,16,88,79,57,30.41,30.30,3,0,4,0.03
2013-1-9,50,34,24,43,30,21,93,87,75,30.51,30.26,4,0,7,0.03
2013-1-10,31,29,28,28,26,25,90,90,89,30.55,30.51,0,0,0,0.00
2013-1-14,57,40,33,55,34,25,94,77,64,30.38,29.88,4,1,15,0.04
2013-1-15,34,31,26,29,25,22,89,78,70,30.42,30.09,2,0,8,0.06
2013-1-16,35,34,32,33,31,29,93,91,85,30.08,29.92,3,0,10,0.30
2013-1-17,36,34,32,30,29,28,85,81,77,30.21,30.07,3,1,11,0.02
2013-1-18,34,28,20,27,17,11,83,63,52,30.54,30.20,6,2,16,0.00
2013-1-19,55,44,29,29,24,18,65,47,33,30.29,29.85,7,2,20,0.00
2013-1-20,26,26,25,15,15,14,65,63,62,30.16,30.14,2,1,3,0.00
2013-1-21,28,23,14,19,14,3,84,66,55,30.14,29.95,7,2,14,0.00
2013-1-22,15,11,8,3,0,-2,71,61,53,30.35,30.11,7,3,14,0.00
2013-1-23,18,13,7,10,3,-1,76,63,50,30.38,30.14,5,1,12,0.00
2013-1-24,24,17,12,12,8,2,82,68,42,30.60,30.12,4,1,9,0.00
2013-1-25,20,16,12,16,10,4,84,76,63,30.59,30.08,1,0,1,0.00
2013-1-26,29,23,14,22,18,9,87,81,73,30.50,30.15,3,1,8,0.01
2013-1-27,34,22,6,24,15,3,88,74,54,30.61,30.36,1,0,4,0.14
2013-1-28,49,40,30,48,37,24,95,91,77,30.36,30.04,1,0,4,0.44
2013-1-29,66,52,44,58,49,43,96,89,71,30.07,29.78,3,0,4,0.01
2013-1-30,69,56,46,60,52,44,94,86,66,29.79,29.23,4,1,8,0.94
2013-1-31,49,43,37,45,40,34,88,86,80,29.36,29.22,5,3,13,0.08
2013-2-1,24,17,11,18,9,4,83,70,62,30.41,29.85,5,2,24,0.00
2013-2-2,25,16,10,20,10,4,82,76,72,30.38,30.05,3,1,14,0.00
2013-2-3,28,24,19,23,20,13,89,84,73,30.09,29.86,3,1,11,0.00
2013-2-4,29,23,18,24,18,12,89,80,68,30.13,29.90,4,0,15,0.03
2013-2-5,32,30,27,30,27,24,92,89,79,29.98,29.86,1,0,6,0.00
2013-2-6,34,29,18,26,23,15,90,80,62,30.38,29.98,3,0,10,0.06
2013-2-7,44,30,16,32,24,13,89,77,61,30.36,30.01,2,0,9,0.14
2013-2-8,40,34,27,36,29,22,91,82,75,30.17,29.82,6,2,17,0.12
2013-2-9,37,27,22,23,20,17,83,73,51,30.43,30.17,5,1,12,0.00
2013-2-10,54,34,17,30,22,13,88,65,35,30.41,29.99,2,0,7,0.00
2013-2-11,64,48,38,49,37,27,95,68,36,29.99,29.65,10,3,26,0.01
2013-2-12,45,37,28,30,26,23,83,66,54,30.08,29.92,7,3,20,0.00
2013-2-13,41,31,24,32,26,21,90,83,65,29.95,29.70,2,0,4,0.02
2013-2-14,30,30,30,28,27,26,91,88,86,29.94,29.89,1,0,7,0.00
2013-2-15,40,35,26,32,29,23,89,79,65,30.08,29.98,4,1,11,0.00
2013-2-16,31,26,21,24,20,15,92,76,58,30.08,29.95,4,1,12,0.06
2013-2-17,22,21,20,19,17,16,87,86,84,29.99,29.96,4,1,9,0.00
2013-2-18,45,26,8,30,17,3,84,70,46,30.38,29.91,3,0,10,0.02
2013-2-19,45,35,24,39,29,16,88,77,61,29.99,29.70,9,3,25,0.16
2013-2-20,24,21,19,18,14,11,84,72,62,30.27,30.00,9,4,22,0.00
2013-2-21,28,23,20,18,15,13,80,72,60,30.41,30.24,6,1,14,0.00
2013-2-22,39,32,23,34,25,15,89,77,59,30.33,30.02,3,0,9,0.00
2013-2-23,45,36,30,38,32,26,90,84,73,30.03,29.87,2,0,6,0.00
2013-2-24,32,30,27,26,24,22,90,80,68,30.18,29.88,5,1,13,0.00
2013-2-25,44,33,23,28,24,20,89,72,51,30.27,30.08,4,0,10,0.00
2013-2-26,41,35,26,36,29,22,91,79,56,30.10,29.60,5,1,14,0.59
2013-2-27,44,40,35,39,36,32,92,86,74,29.70,29.57,4,1,12,0.20
2013-2-28,35,34,34,32,31,29,92,87,82,29.83,29.64,3,1,9,0.10
2013-3-1,34,31,28,31,26,21,89,80,74,30.00,29.82,4,1,13,0.00
2013-3-2,30,28,26,25,22,20,89,79,71,29.99,29.93,4,1,8,0.00
2013-3-3,29,27,24,23,20,18,87,77,69,30.04,29.95,7,3,16,0.00
2013-3-4,39,28,23,24,20,17,84,70,51,30.16,30.04,7,2,17,0.01
2013-3-5,48,34,20,29,21,15,88,62,30,30.13,29.71,5,1,13,0.00
2013-3-6,41,35,32,34,31,30,92,84,66,30.13,29.70,4,0,15,0.47
2013-3-7,42,36,33,33,30,27,89,79,66,30.30,30.12,5,1,14,0.00
2013-3-8,40,34,28,31,27,24,85,76,67,30.44,30.30,5,1,12,0.00
2013-3-9,57,38,23,36,28,20,91,70,40,30.44,30.20,2,0,7,0.00
2013-3-10,72,52,33,42,35,28,84,57,31,30.20,29.99,4,1,11,0.00
2013-3-11,64,56,46,49,39,35,86,56,36,30.01,29.69,4,1,15,0.06
2013-3-12,53,41,38,49,35,29,92,78,66,30.01,29.74,7,2,18,0.02
2013-3-13,38,35,34,29,29,28,81,78,71,30.00,29.97,1,0,1,0.00
2013-3-14,40,31,26,24,20,18,79,65,48,30.25,30.14,9,4,24,0.00
2013-3-15,51,37,24,38,28,20,84,69,56,30.14,29.83,6,2,19,0.00
2013-3-16,42,38,35,38,35,32,90,88,84,29.97,29.64,2,0,6,0.02
2013-3-17,38,34,30,32,25,23,86,71,60,30.22,29.98,3,1,10,0.00
2013-3-18,42,36,30,37,30,23,89,79,66,30.19,29.71,4,1,14,0.41
2013-3-19,46,39,31,40,29,19,92,67,46,29.99,29.71,11,4,31,0.02
2013-3-20,41,33,27,24,20,18,71,60,46,30.00,29.83,8,2,25,0.00
2013-3-21,29,25,20,21,15,10,81,64,49,29.95,29.88,8,3,17,0.00
2013-3-22,28,28,27,21,20,20,76,74,72,29.95,29.94,3,2,11,0.00
2013-3-26,36,36,36,31,31,31,81,81,81,30.07,30.07,0,0,5,0.00
2013-4-2,40,33,26,21,18,15,73,56,40,30.22,30.04,10,3,22,0.00
2013-4-3,40,31,22,24,17,13,86,57,37,30.45,30.21,11,2,27,0.00
2013-4-4,53,30,19,21,17,15,83,62,24,30.42,30.14,4,1,11,0.00
2013-4-5,56,42,28,34,26,22,83,56,35,30.23,29.95,11,2,21,0.00
2013-4-6,61,45,26,29,22,15,81,44,21,30.32,29.99,5,1,12,0.00
2013-4-7,72,62,48,49,42,29,77,49,38,30.00,29.86,9,3,26,0.00
2013-4-8,75,64,46,52,49,41,85,58,41,30.03,29.87,9,2,20,0.00
2013-4-9,82,70,57,58,55,50,79,59,44,30.07,29.87,6,2,12,0.00
2013-4-10,83,67,57,64,57,51,92,72,48,29.95,29.75,8,2,18,0.23
2013-4-11,60,59,59,58,57,57,94,93,92,29.86,29.83,1,0,3,0.23
2013-4-12,66,59,47,60,52,36,94,77,58,29.85,29.48,11,4,22,0.55
2013-4-13,56,47,40,38,36,33,77,64,50,30.02,29.84,8,3,17,0.55
2013-4-14,62,49,33,42,35,28,84,60,44,30.18,30.02,6,1,12,0.00
2013-4-15,68,62,55,52,48,40,68,60,53,30.10,29.98,6,2,14,0.00
2013-4-16,81,65,50,63,55,46,94,73,53,30.19,30.00,7,2,14,1.12
2013-4-17,69,60,53,59,54,48,94,84,68,30.23,30.08,2,1,8,0.00
2013-4-18,85,73,58,66,60,54,92,66,47,30.10,29.75,7,3,21,0.00
2013-4-19,74,61,46,62,50,33,85,68,58,29.85,29.45,11,4,23,0.12
2013-4-20,48,42,36,34,29,26,78,61,47,30.42,29.85,10,5,21,0.01
2013-4-21,55,42,28,30,26,24,89,55,34,30.62,30.42,5,1,11,0.00
2013-4-22,63,51,40,35,31,26,75,48,29,30.49,30.28,4,2,14,0.00
2013-4-23,71,55,37,44,37,32,87,54,31,30.30,29.96,4,1,9,0.00
2013-4-24,72,56,42,56,46,34,90,73,54,30.16,29.74,12,3,25,0.15
2013-4-25,58,47,35,40,34,30,88,64,40,30.37,30.17,7,3,20,0.00
2013-4-26,61,49,37,42,36,32,93,63,36,30.48,30.36,4,1,10,0.00
2013-4-27,75,56,36,44,38,32,91,57,29,30.41,30.15,4,1,10,0.00
2013-4-28,61,55,48,52,46,42,89,71,50,30.16,30.05,2,0,9,0.13
2013-4-29,66,59,54,58,54,48,92,84,74,30.02,29.93,4,0,9,0.07
2013-4-30,72,62,52,58,54,50,93,75,58,30.18,30.02,4,1,13,0.07
2013-5-1,77,64,51,56,50,40,90,62,38,30.30,30.18,4,1,13,0.00
2013-5-2,79,62,44,47,42,36,92,52,22,30.35,30.19,4,1,12,0.00
2013-5-3,74,61,44,50,45,38,90,58,33,30.25,30.15,5,2,19,0.00
2013-5-4,72,60,45,49,43,37,80,53,36,30.20,30.07,4,2,14,0.00
2013-5-5,74,61,46,44,38,30,84,47,22,30.14,30.00,5,2,16,0.00
2013-5-6,70,59,43,56,48,39,89,69,53,30.08,29.99,5,1,14,0.00
2013-5-7,69,62,57,59,56,53,90,81,66,30.02,29.93,3,1,7,0.05
2013-5-8,74,63,53,58,54,50,94,74,45,29.98,29.86,3,1,10,0.05
2013-5-9,78,64,54,60,55,51,95,76,46,29.98,29.88,5,1,11,0.06
2013-5-10,76,62,54,65,58,52,93,87,66,29.99,29.79,6,1,12,0.39
2013-5-11,61,58,52,60,55,49,95,90,79,29.83,29.75,4,1,10,0.29
2013-5-12,53,49,40,49,36,32,91,62,45,30.06,29.82,8,3,18,0.00
2013-5-13,53,45,34,34,30,28,83,58,39,30.20,30.06,8,2,17,0.00
2013-5-14,62,47,30,45,36,27,91,68,49,30.22,29.90,3,1,8,0.00
2013-5-15,87,67,49,67,56,43,90,70,48,29.90,29.69,8,2,18,0.00
2013-5-16,68,65,64,62,61,60,91,86,81,29.79,29.74,1,0,3,0.04
2013-5-17,83,67,55,63,58,53,95,75,43,30.08,29.95,4,1,9,0.00
2013-5-18,84,68,52,65,58,50,94,73,46,30.12,30.00,3,1,11,0.00
2013-5-19,66,64,62,60,59,58,86,83,81,30.06,30.04,0,0,3,0.09
2013-5-20,86,73,60,72,66,58,96,80,60,30.01,29.88,4,1,10,0.00
2013-5-21,87,75,63,73,68,61,96,79,57,29.94,29.79,5,1,15,0.00
2013-5-22,67,66,66,63,63,63,89,89,88,29.80,29.79,1,0,1,0.10
2013-5-23,77,65,53,65,62,51,95,88,62,29.86,29.75,6,1,10,0.74
2013-5-24,52,46,42,50,39,33,91,77,62,30.30,29.86,5,2,16,0.02
2013-5-25,62,48,35,43,37,32,91,67,43,30.34,30.22,7,2,18,0.00
2013-5-26,68,52,37,44,40,34,91,65,39,30.31,30.20,6,1,10,0.00
2013-5-27,63,53,40,52,45,37,92,74,57,30.28,30.09,3,0,6,0.00
2013-5-28,81,66,55,69,60,50,95,82,60,30.10,29.97,6,1,16,0.20
2013-5-29,86,74,62,68,64,59,93,72,50,30.07,29.99,6,2,12,0.00
2013-5-30,89,74,60,71,65,57,94,75,51,30.16,30.04,3,1,6,0.00
2013-5-31,88,76,63,70,66,61,95,75,51,30.09,29.95,4,1,8,0.00
2013-6-1,87,77,68,72,67,64,88,73,57,29.98,29.78,6,2,11,0.00
2013-6-2,80,74,68,68,66,63,92,76,60,29.84,29.76,6,2,14,0.14
2013-6-3,69,64,53,64,56,46,86,77,65,30.05,29.83,4,1,7,0.00
2013-6-4,76,60,44,55,48,40,91,67,44,30.17,30.05,4,1,7,0.00
2013-6-5,85,67,50,68,57,47,92,73,54,30.13,29.91,3,0,7,0.00
2013-6-6,70,66,63,67,63,60,95,89,73,29.92,29.75,2,0,7,0.43
2013-6-7,67,64,60,63,61,56,96,92,84,29.83,29.72,2,0,5,0.07
2013-6-8,74,63,57,60,56,54,89,79,61,30.10,29.83,3,1,6,0.02
2013-6-9,85,70,57,71,62,54,94,76,52,30.15,29.98,3,0,5,0.01
2013-6-10,76,70,66,72,67,63,94,90,79,29.99,29.75,4,0,8,0.00
2013-6-11,78,70,64,68,64,62,93,85,66,29.86,29.77,5,1,8,0.01
2013-6-12,67,66,65,64,63,62,92,91,88,29.85,29.83,0,0,0,0.00
2013-6-13,73,67,62,71,62,-100,95,86,78,29.76,29.47,7,2,24,0.02
2013-6-14,76,64,57,62,58,54,92,80,59,30.04,29.76,5,1,13,0.03
2013-6-15,80,66,54,59,56,52,95,73,41,30.12,29.98,3,1,9,0.02
2013-6-16,75,68,63,69,64,58,93,86,77,30.00,29.88,4,1,12,0.01
2013-6-17,83,73,67,69,66,63,92,78,55,29.95,29.85,3,1,5,0.02
2013-6-18,79,68,63,70,64,61,93,87,71,29.92,29.81,5,0,9,0.01
2013-6-19,80,66,56,62,56,52,93,71,43,30.13,29.92,3,1,8,0.01
2013-6-20,83,68,52,64,56,50,95,71,42,30.21,30.13,3,0,6,0.01
2013-6-21,89,71,57,68,61,55,95,73,46,30.23,30.12,2,0,6,0.00
2013-6-22,88,75,61,74,67,59,95,77,58,30.18,30.03,4,1,7,0.00
2013-6-23,88,78,67,74,69,64,94,77,53,30.13,30.01,5,1,9,0.01
2013-6-24,89,78,67,74,69,65,94,75,53,30.10,29.96,3,1,9,0.00
2013-6-25,89,76,67,74,69,64,93,79,59,30.02,29.84,6,1,10,0.00
2013-6-26,84,74,66,73,68,65,96,85,65,29.95,29.78,3,1,8,0.00
2013-6-27,72,69,68,69,67,67,95,94,91,29.78,29.71,0,0,1,0.00
2013-6-28,68,21,63,66,-48,-100,95,30,92,29.56,29.52,2,0,3,0.00
2013-6-29,80,69,61,69,64,59,96,85,62,29.68,29.53,5,1,15,0.01
2013-6-30,84,72,62,72,66,60,97,83,62,29.82,29.67,6,0,17,0.00
2013-7-1,81,72,67,72,68,65,95,88,71,29.94,29.78,3,0,10,0.00
2013-7-2,86,75,67,75,70,66,96,84,62,30.03,29.91,4,1,10,0.00
2013-7-3,87,76,68,76,70,66,95,81,61,30.14,30.03,4,1,15,0.00
2013-7-4,90,76,69,75,70,67,95,83,61,30.19,30.07,4,1,18,0.00
2013-7-5,85,77,68,75,70,67,97,82,65,30.14,30.06,4,1,11,0.00
2013-7-6,91,78,69,76,72,67,96,82,59,30.14,29.98,3,1,7,0.00
2013-7-7,78,74,71,72,70,68,93,87,75,30.07,29.97,3,1,9,0.00
2013-7-8,84,74,67,74,68,64,94,83,66,30.10,30.00,4,1,8,0.00
2013-7-9,83,74,69,78,71,67,97,91,80,30.09,29.93,4,1,14,0.00
2013-7-10,86,74,68,80,72,67,97,92,78,29.98,29.78,3,1,13,0.00
2013-7-11,78,70,61,68,64,58,96,82,61,29.98,29.90,4,0,12,0.00
2013-7-12,77,68,58,70,64,56,95,86,74,30.06,29.97,4,0,9,0.00
2013-7-13,86,74,63,74,68,61,95,82,64,30.20,30.07,2,0,7,0.00
2013-7-14,92,79,68,77,71,66,95,78,56,30.26,30.19,4,1,12,0.00
2013-7-15,95,80,69,79,72,67,96,79,57,30.31,30.19,3,0,8,0.00
2013-7-16,92,76,71,81,71,-100,97,87,64,30.28,30.19,6,0,19,0.00
2013-7-17,91,76,70,81,73,69,98,92,70,30.27,30.12,5,0,13,0.00
2013-7-18,92,80,71,81,74,-100,98,86,65,30.13,29.98,3,-4,6,0.00
2013-7-19,90,80,74,80,75,71,97,86,67,30.00,29.82,5,1,12,0.00
2013-7-20,81,75,72,75,71,68,93,86,76,29.89,29.81,6,1,16,0.00
2013-7-21,85,74,68,76,70,66,96,88,70,29.94,29.86,4,0,11,0.00
2013-7-22,82,71,66,76,69,65,97,94,81,29.92,29.74,3,0,7,0.00
2013-7-23,84,73,66,72,68,63,96,87,63,29.75,29.66,6,1,9,0.00
2013-7-24,73,65,57,64,58,54,93,80,63,29.99,29.76,5,1,11,0.00
2013-7-25,78,64,53,63,56,51,94,77,53,30.07,29.97,3,1,10,0.00
2013-7-26,82,67,55,65,59,53,96,77,50,30.09,29.97,3,0,7,0.00
2013-7-27,72,66,60,69,64,58,96,92,87,29.99,29.83,2,0,4,0.00
2013-7-28,76,68,60,66,62,56,96,82,59,30.02,29.83,5,1,10,0.00
2013-7-29,74,64,54,62,57,52,96,80,59,30.18,30.02,4,1,18,0.00
2013-7-30,79,66,55,67,59,53,95,81,58,30.23,30.13,3,0,6,0.00
2013-7-31,79,68,59,69,63,57,95,86,64,30.14,29.94,3,0,6,0.00
2013-8-1,81,72,66,69,66,63,95,84,62,29.94,29.82,4,1,9,0.00
2013-8-2,78,70,60,66,62,58,96,78,53,29.96,29.87,5,1,11,0.00
2013-8-3,76,68,61,70,64,57,94,87,76,29.97,29.90,4,1,10,0.00
2013-8-4,75,65,56,63,58,54,96,81,58,30.07,29.97,4,1,9,0.00
2013-8-5,74,64,54,62,57,52,95,80,56,30.12,30.00,3,0,5,0.00
2013-8-6,84,69,57,67,60,55,94,76,52,30.02,29.94,2,0,6,0.00
2013-8-7,85,71,62,75,66,60,95,87,68,29.98,29.88,3,0,8,0.00
2013-8-8,86,74,66,77,70,65,97,88,74,29.95,29.86,4,1,8,0.00
2013-8-9,79,74,69,75,71,67,95,90,80,29.98,29.85,4,0,7,0.00
2013-8-10,80,72,64,72,67,63,96,84,64,30.07,29.98,3,0,7,0.00
2013-8-11,84,71,62,73,66,60,95,85,65,30.10,29.98,3,0,6,0.00
2013-8-12,83,73,67,72,67,-100,97,84,63,30.03,29.85,4,-10,10,0.00
2013-8-13,79,71,59,70,64,53,94,81,63,29.95,29.77,4,1,11,0.00
2013-8-14,70,59,52,58,53,49,93,81,61,30.14,29.95,4,1,10,0.00
2013-8-15,55,53,51,51,50,49,92,91,89,30.17,30.14,0,0,1,0.00
2013-8-21,86,74,59,72,67,57,95,79,54,30.18,30.01,3,0,6,0.00
2013-8-22,82,73,67,74,69,65,96,89,72,30.07,29.94,4,1,10,0.00
2013-8-23,84,73,68,71,68,64,96,84,62,30.08,29.97,2,0,7,0.00
2013-8-24,82,68,57,68,62,55,95,81,56,30.32,30.19,3,0,7,0.00
2013-8-25,82,70,57,68,62,55,96,80,54,30.35,30.19,4,1,9,0.00
2013-8-26,85,74,59,70,67,57,96,80,58,30.23,29.96,5,1,15,0.00
2013-8-27,82,76,70,75,71,68,96,87,74,29.97,29.84,4,1,11,0.00
2013-8-28,80,73,70,76,71,69,97,94,84,29.91,29.78,3,0,10,0.00
2013-8-29,88,76,70,76,71,67,96,86,64,30.00,29.88,2,0,6,0.00
2013-8-30,88,75,65,74,69,64,97,85,64,29.98,29.79,4,1,12,0.00
2013-8-31,87,76,69,76,71,67,96,85,65,29.82,29.73,4,1,7,0.00
2013-9-1,82,74,70,75,71,68,95,90,78,29.81,29.74,3,0,10,0.00
2013-9-2,85,74,67,75,70,65,97,88,68,29.81,29.69,5,1,10,0.00
2013-9-3,73,66,59,65,61,55,96,83,61,30.02,29.80,4,1,11,0.00
2013-9-4,79,64,53,63,57,51,96,81,53,30.12,30.02,3,1,8,0.00
2013-9-5,75,65,56,63,57,50,95,78,56,30.19,30.05,4,1,11,0.00
2013-9-6,76,61,48,55,50,46,94,71,41,30.27,30.12,3,1,6,0.00
2013-9-7,81,64,48,63,55,46,94,75,48,30.13,29.93,3,1,7,0.00
2013-9-8,79,69,63,70,64,60,92,83,71,30.03,29.90,2,0,6,0.00
2013-9-9,82,68,58,74,64,56,95,88,72,30.08,29.97,4,0,8,0.00
2013-9-10,90,77,67,79,73,66,97,86,70,30.10,30.02,4,1,12,0.00
2013-9-11,87,76,72,80,73,70,96,90,73,30.11,29.98,5,0,8,0.00
2013-9-12,78,71,63,73,69,61,97,92,79,29.98,29.76,6,0,14,0.00
2013-9-13,63,62,59,61,59,57,96,92,89,29.83,29.80,1,0,3,0.00
2013-9-23,57,50,41,49,44,39,93,81,66,30.15,30.05,2,0,8,0.00
2013-9-24,72,55,40,55,47,38,95,78,51,30.14,29.93,3,1,9,0.00
2013-9-25,77,60,46,58,52,44,95,78,46,29.96,29.86,3,0,7,0.00
2013-9-26,78,60,48,58,52,46,95,77,46,30.11,29.96,4,0,10,0.00
2013-9-27,76,61,47,60,54,45,95,79,52,30.20,30.11,2,0,7,0.00
2013-9-28,74,60,49,60,53,47,96,78,56,30.26,30.12,4,0,11,0.00
2013-9-29,76,66,50,63,57,48,94,74,61,30.13,29.99,4,1,10,0.00
2013-9-30,71,61,52,64,57,50,94,87,76,30.05,29.96,2,0,6,0.00
2013-10-1,78,66,59,65,60,57,95,82,60,30.07,29.97,5,1,13,0.00
2013-10-2,82,68,56,68,62,55,96,83,62,30.09,30.00,4,1,8,0.00
2013-10-3,80,68,58,70,64,57,96,86,69,30.08,29.98,3,0,8,0.00
2013-10-4,82,70,64,70,66,63,96,88,64,30.09,29.99,4,0,12,0.00
2013-10-5,83,71,65,72,67,64,96,88,67,30.07,29.95,4,0,11,0.00
2013-10-6,86,74,65,71,66,62,97,77,52,29.94,29.73,4,1,13,0.00
2013-10-7,72,58,48,63,51,45,93,78,60,30.12,29.66,7,2,17,0.00
2013-10-8,68,53,42,52,46,40,94,79,53,30.31,30.12,3,0,9,0.00
2013-10-9,69,54,42,51,46,40,95,76,46,30.34,30.23,3,0,15,0.00
2013-10-10,50,47,46,46,44,43,89,88,86,30.24,30.20,0,0,0,0.00
2013-10-11,60,56,53,57,54,50,95,93,89,30.09,30.04,2,0,5,0.00
2013-10-12,75,64,54,65,59,52,95,84,69,30.19,30.06,4,0,10,0.00
2013-10-13,72,65,57,63,60,55,94,83,71,30.24,30.19,4,0,9,0.00
2013-10-14,62,60,54,59,57,53,95,91,87,30.28,30.15,2,0,6,0.00
2013-10-15,62,60,58,57,56,55,90,88,83,29.99,29.97,0,0,2,0.00
2013-10-16,64,59,55,62,57,53,94,92,89,29.98,29.86,2,0,10,0.00
2013-10-17,64,56,51,61,54,48,95,91,87,29.90,29.66,5,1,8,0.00
2013-10-18,62,53,45,48,45,42,90,76,53,30.03,29.90,6,2,16,0.00
2013-10-19,54,46,38,49,42,36,97,87,76,29.98,29.76,8,1,16,0.00
2013-10-20,59,47,38,44,40,36,92,77,53,30.06,29.96,7,1,15,0.00
2013-10-21,67,50,35,45,40,33,94,72,40,30.09,29.86,6,1,11,0.00
2013-10-22,53,47,42,48,39,33,90,74,48,29.97,29.83,5,1,10,0.00
2013-10-23,42,41,37,39,37,34,90,87,82,29.95,29.77,3,0,7,0.00
2013-10-24,46,40,34,35,32,30,90,76,54,30.17,29.95,6,2,14,0.00
2013-10-25,48,39,30,36,31,27,92,75,53,30.36,30.17,5,1,13,0.00
2013-10-26,50,42,30,34,30,27,89,66,45,30.28,29.92,8,2,18,0.00
2013-10-27,54,44,33,37,34,30,91,68,48,30.12,30.00,6,1,15,0.00
2013-10-28,60,44,30,43,35,27,92,73,44,30.31,30.11,3,0,6,0.00
2013-10-29,60,46,34,44,38,31,94,77,51,30.40,30.28,4,0,7,0.00
2013-10-30,65,52,42,54,46,39,91,81,62,30.28,30.11,2,0,5,0.00
2013-10-31,68,62,55,60,57,52,94,84,72,30.11,29.47,7,1,22,0.00
2013-11-1,72,69,66,61,58,57,72,69,66,29.46,29.33,11,5,16,0.00
2013-11-2,54,48,39,45,41,34,92,79,67,30.14,29.69,8,2,18,0.00
2013-11-3,50,49,49,35,34,34,57,57,56,30.32,30.31,6,4,15,0.00
2013-11-4,48,40,28,32,28,24,87,61,43,30.58,30.44,4,1,11,0.01
2013-11-5,60,46,34,39,34,30,87,64,44,30.54,30.26,3,0,9,0.00
2013-11-6,74,61,34,57,51,30,93,71,50,30.26,29.85,7,2,18,0.00
2013-11-7,48,43,37,45,35,28,92,74,57,30.19,29.93,10,3,21,0.00
2013-11-8,45,40,29,32,29,25,83,66,51,30.32,30.19,7,3,20,0.00
2013-11-9,59,42,27,34,28,24,88,62,33,30.32,29.98,6,2,18,0.01
2013-11-10,54,46,36,38,33,28,75,60,45,30.29,29.98,9,4,21,0.01
2013-11-11,51,41,29,40,31,26,90,71,43,30.30,30.06,6,2,12,0.01
2013-11-12,38,32,28,34,26,20,92,79,53,30.50,30.11,5,1,12,0.01
2013-11-13,28,28,27,24,24,22,86,83,81,30.51,30.50,4,2,6,0.00
2013-11-14,51,36,27,28,24,21,86,64,36,30.40,30.20,6,1,15,0.02
2013-11-15,57,47,28,39,32,25,87,59,32,30.25,30.15,6,1,16,0.05
2013-11-16,63,54,36,50,45,33,90,73,62,30.25,30.03,4,1,12,0.00
2013-11-17,62,56,49,59,53,44,92,88,78,30.03,29.53,8,1,13,0.00
2013-11-18,59,51,40,53,38,28,80,61,49,30.06,29.61,10,6,22,0.00
2013-11-19,40,36,28,29,26,23,83,67,60,30.44,30.06,7,1,13,0.00
2013-11-20,50,36,23,27,21,18,90,59,30,30.51,30.38,5,1,17,0.01
2013-11-21,58,43,28,41,32,20,84,67,48,30.47,30.24,3,0,6,0.04
2013-11-22,54,49,38,52,45,33,94,87,73,30.24,30.05,4,1,17,0.01
2013-11-23,38,33,22,32,24,10,85,71,54,30.37,30.14,9,3,22,0.01
2013-11-24,24,20,18,13,12,10,74,69,61,30.54,30.37,9,5,15,0.01
2013-11-25,38,31,14,30,18,9,90,61,35,30.54,30.20,5,1,14,0.04
2013-11-26,34,33,31,33,31,29,94,92,90,30.21,29.74,3,0,7,0.12
2013-11-27,33,27,20,30,21,13,92,79,71,30.36,29.75,8,4,20,0.02
2013-11-28,30,26,19,22,17,13,77,70,60,30.47,30.34,7,2,17,0.01
2013-11-29,36,30,23,25,22,19,86,73,57,30.70,30.47,4,0,8,0.02
2013-11-30,41,29,21,27,22,18,89,76,56,30.67,30.27,2,0,8,0.03
2013-12-1,46,35,26,34,29,22,89,79,59,30.27,30.00,4,0,11,0.04
2013-12-2,52,41,35,40,35,31,88,79,62,30.00,29.83,3,0,8,0.01
2013-12-3,56,43,37,44,38,34,93,83,62,29.93,29.86,3,0,7,0.01
2013-12-4,60,46,33,50,41,31,93,83,68,30.02,29.89,2,0,7,0.00
2013-12-5,66,55,40,58,51,38,95,87,71,30.05,29.85,6,1,10,0.00
2013-12-6,40,35,30,38,32,28,92,91,86,30.31,30.03,2,0,7,0.00
2013-12-7,32,28,22,28,22,16,92,81,68,30.63,30.29,4,1,11,0.08
2013-12-8,26,22,19,24,16,14,89,80,76,30.62,30.36,2,0,8,0.08
2013-12-13,36,31,27,22,20,18,78,65,53,30.30,30.24,6,1,9,0.01
2013-12-14,37,32,28,35,28,21,93,86,77,30.29,29.68,3,0,7,0.00
2013-12-15,40,31,23,38,26,12,94,81,61,30.06,29.65,9,5,16,0.00
2013-12-16,23,23,23,13,13,13,65,65,65,30.07,30.06,5,5,8,0.00
2013-12-19,42,35,33,35,26,-100,87,80,75,30.09,30.07,0,-42,3,0.04
2013-12-20,58,49,33,50,42,30,90,77,52,30.07,29.90,6,1,15,0.04
2013-12-21,61,58,55,59,54,49,95,89,80,29.91,29.65,3,1,8,0.10
2013-12-22,70,61,56,61,56,49,95,83,72,29.92,29.55,9,3,25,0.03
2013-12-23,56,40,32,49,35,22,93,81,66,30.31,29.92,7,2,9,0.01
2013-12-24,32,24,15,24,16,9,86,69,55,30.57,30.25,9,4,14,0.00
2013-12-25,28,21,13,21,13,8,82,73,62,30.58,30.28,2,0,5,0.00
2013-12-26,38,32,26,28,23,18,89,73,55,30.39,30.19,9,2,16,0.10
2013-12-27,43,32,24,30,24,18,85,73,57,30.41,30.31,6,1,12,0.18
2013-12-28,54,38,25,35,28,22,87,71,48,30.31,30.09,7,1,18,0.15
2013-12-29,43,39,34,41,36,28,93,89,79,30.09,29.67,7,1,14,0.03
2013-12-30,41,28,24,38,22,16,89,79,71,30.23,29.86,6,2,15,0.02
2013-12-31,27,25,23,22,19,16,85,77,68,30.36,30.12,8,3,17,0.00
2014-1-1,38,31,26,28,23,19,79,74,64,30.37,30.08,4,0,7,0.06
2014-1-2,31,26,12,27,22,7,90,84,79,30.08,29.70,2,0,9,0.00